Upstream stations:
Downstream station:
SHEF ID: BRIO2 Canadian River at Bridgeport, OK
STATION TYPE:
Regulating: Stage = 15.00, Flow = 8545
STAGE RIV-FLOW
ft cfs
Ccp-Rev Ccp-Rev
(US/Central)
06/07 00:00 12.59 2176
06/07 01:00 12.57 2146
06/07 02:00 12.56 2132
06/07 03:00 12.54 2103
06/07 04:00 12.53 2089
06/07 05:00 12.53 2089
06/07 06:00 12.52 2074
06/07 07:00 12.50 2046
06/07 08:00 12.53 2089
06/07 09:00 12.97 2785
06/07 10:00 13.16 3130
06/07 11:00 13.16 3130
06/07 12:00 13.06 2945
06/07 13:00 12.99 2820
06/07 14:00 12.93 2716
06/07 15:00 12.90 2665
06/07 16:00 12.88 2631
06/07 17:00 12.84 2565
06/07 18:00 12.86 2598
06/07 19:00 12.82 2532
06/07 20:00 12.71 2357
06/07 21:00 15.28 9777
06/07 22:00 ---- ----
06/07 23:00 ---- ----